createdAt,value
2022-09-21T00:01:45.604Z,2.40
2022-09-21T00:04:34.084Z,1.87
2022-09-21T00:07:22.474Z,2.07
2022-09-21T00:10:11.352Z,2.20
2022-09-21T00:13:00.180Z,2.20
2022-09-21T00:15:48.507Z,1.90
2022-09-21T00:18:38.271Z,2.10
2022-09-21T00:21:28.121Z,2.03
2022-09-21T00:24:16.546Z,2.10
2022-09-21T00:27:05.200Z,2.20
2022-09-21T00:29:54.027Z,2.20
2022-09-21T00:32:42.648Z,1.90
2022-09-21T00:35:33.467Z,2.10
2022-09-21T00:38:21.803Z,1.83
2022-09-21T00:41:11.120Z,2.10
2022-09-21T00:44:25.023Z,1.97
2022-09-21T00:47:14.401Z,2.23
2022-09-21T00:50:06.267Z,2.00
2022-09-21T00:52:58.094Z,2.03
2022-09-21T00:55:49.314Z,2.20
2022-09-21T00:58:40.517Z,2.13
2022-09-21T01:01:28.859Z,2.40
2022-09-21T01:04:18.887Z,2.47
2022-09-21T01:07:12.362Z,2.83
2022-09-21T01:10:05.195Z,2.87
2022-09-21T01:13:05.380Z,2.33
2022-09-21T01:15:56.981Z,2.37
2022-09-21T01:18:47.753Z,2.67
2022-09-21T01:21:36.541Z,3.60
2022-09-21T01:24:40.333Z,3.30
2022-09-21T01:27:50.061Z,5.23
2022-09-21T01:30:39.757Z,4.90
2022-09-21T01:33:30.225Z,2.80
2022-09-21T01:36:21.221Z,2.40
2022-09-21T01:39:12.434Z,3.53
2022-09-21T01:42:00.808Z,4.40
2022-09-21T01:44:49.166Z,4.80
2022-09-21T01:47:39.894Z,3.57
2022-09-21T01:50:31.347Z,3.17
2022-09-21T01:53:24.037Z,4.13
2022-09-21T01:56:14.388Z,3.47
2022-09-21T01:59:07.530Z,6.20
2022-09-21T02:01:59.983Z,6.23
2022-09-21T02:04:49.816Z,4.33
2022-09-21T02:07:38.411Z,3.20
2022-09-21T02:10:31.318Z,3.90
2022-09-21T02:13:20.489Z,4.83
2022-09-21T02:16:30.248Z,4.33
2022-09-21T02:19:23.715Z,4.33
2022-09-21T02:22:16.978Z,4.60
2022-09-21T02:25:09.331Z,3.57
2022-09-21T02:28:01.023Z,3.10
2022-09-21T02:30:54.127Z,3.10
2022-09-21T02:33:48.416Z,2.80
2022-09-21T02:36:42.083Z,2.80
2022-09-21T02:39:34.715Z,4.60
2022-09-21T02:42:26.723Z,4.03
2022-09-21T02:45:17.026Z,3.67
2022-09-21T02:48:08.499Z,3.10
2022-09-21T02:50:59.401Z,3.67
2022-09-21T02:53:48.212Z,3.67
2022-09-21T02:56:37.944Z,3.63
2022-09-21T02:59:26.663Z,2.53
2022-09-21T03:02:15.419Z,2.70
2022-09-21T03:05:03.971Z,3.10
2022-09-21T03:07:52.326Z,3.07
2022-09-21T03:10:40.709Z,3.07
2022-09-21T03:13:30.500Z,3.03
2022-09-21T03:16:18.913Z,2.70
2022-09-21T03:19:07.470Z,2.90
2022-09-21T03:21:55.930Z,3.30
2022-09-21T03:24:47.364Z,2.83
2022-09-21T03:27:36.038Z,3.40
2022-09-21T03:30:26.856Z,3.27
2022-09-21T03:33:15.219Z,3.23
2022-09-21T03:36:04.133Z,3.00
2022-09-21T03:38:52.472Z,2.67
2022-09-21T03:41:41.222Z,2.50
2022-09-21T03:44:29.719Z,2.77
2022-09-21T03:47:20.678Z,2.53
2022-09-21T03:50:10.457Z,2.90
2022-09-21T03:52:58.881Z,2.97
2022-09-21T03:55:47.263Z,3.00
2022-09-21T03:58:35.633Z,2.97
2022-09-21T04:01:24.013Z,2.90
2022-09-21T04:04:13.774Z,3.13
2022-09-21T04:07:02.235Z,3.50
2022-09-21T04:09:50.609Z,3.27
2022-09-21T04:12:38.983Z,2.97
2022-09-21T04:15:27.457Z,3.00
2022-09-21T04:18:15.849Z,3.20
2022-09-21T04:21:06.305Z,3.07
2022-09-21T04:23:54.828Z,3.10
2022-09-21T04:26:43.238Z,3.20
2022-09-21T04:29:31.584Z,3.20
2022-09-21T04:32:20.050Z,2.97
2022-09-21T04:35:09.505Z,3.80
2022-09-21T04:37:59.677Z,3.03
2022-09-21T04:40:57.043Z,3.33
2022-09-21T04:43:45.694Z,3.53
2022-09-21T04:46:34.179Z,2.80
2022-09-21T04:49:22.626Z,3.07
2022-09-21T04:52:12.213Z,2.80
2022-09-21T04:55:03.469Z,2.50
2022-09-21T04:57:51.790Z,2.80
2022-09-21T05:00:40.342Z,2.60
2022-09-21T05:03:28.833Z,2.43
2022-09-21T05:06:17.254Z,3.10
2022-09-21T05:09:23.084Z,2.90
2022-09-21T05:12:12.809Z,2.70
2022-09-21T05:15:01.220Z,2.57
2022-09-21T05:17:49.598Z,2.50
2022-09-21T05:20:38.010Z,2.57
2022-09-21T05:23:26.519Z,2.30
2022-09-21T05:26:14.893Z,2.10
2022-09-21T05:29:05.948Z,2.07
2022-09-21T05:31:58.477Z,2.30
2022-09-21T05:34:58.155Z,2.20
2022-09-21T05:37:51.820Z,2.53
2022-09-21T05:40:40.916Z,2.17
2022-09-21T05:43:30.093Z,2.47
2022-09-21T05:46:22.079Z,2.73
2022-09-21T05:49:18.359Z,3.03
2022-09-21T05:52:12.299Z,2.40
2022-09-21T05:55:05.540Z,2.63
2022-09-21T05:57:58.041Z,2.40
2022-09-21T06:00:54.707Z,2.70
2022-09-21T06:03:45.400Z,2.90
2022-09-21T06:06:13.556Z,2.43
2022-09-21T06:08:41.705Z,2.57
2022-09-21T06:11:09.939Z,2.07
2022-09-21T06:13:38.439Z,2.60
2022-09-21T06:16:07.973Z,2.60
2022-09-21T06:18:39.331Z,2.23
2022-09-21T06:21:08.994Z,2.33
2022-09-21T06:23:37.458Z,2.40
2022-09-21T06:26:06.043Z,2.80
2022-09-21T06:28:34.231Z,3.47
2022-09-21T06:31:02.475Z,3.77
2022-09-21T06:33:30.950Z,3.67
2022-09-21T06:36:00.003Z,3.03
2022-09-21T06:38:30.050Z,3.67
2022-09-21T06:41:02.646Z,3.40
2022-09-21T06:43:30.834Z,3.07
2022-09-21T06:46:00.394Z,4.13
2022-09-21T06:48:28.773Z,4.57
2022-09-21T06:50:59.345Z,3.30
2022-09-21T06:53:29.599Z,3.70
2022-09-21T06:56:02.705Z,2.90
2022-09-21T06:58:31.824Z,2.80
2022-09-21T07:01:00.063Z,2.67
2022-09-21T07:03:28.246Z,2.47
2022-09-21T07:05:56.353Z,2.23
2022-09-21T07:11:14.034Z,1.90
2022-09-21T07:13:42.456Z,1.77
2022-09-21T07:16:10.929Z,1.70
2022-09-21T07:18:43.636Z,1.80
2022-09-21T07:21:12.840Z,2.70
2022-09-21T07:23:40.984Z,2.80
2022-09-21T07:26:10.377Z,2.97
2022-09-21T07:28:39.967Z,3.80
2022-09-21T07:31:09.170Z,4.73
2022-09-21T07:33:37.381Z,3.30
2022-09-21T07:36:10.188Z,2.30
2022-09-21T07:38:39.677Z,3.10
2022-09-21T07:41:08.109Z,2.80
2022-09-21T07:43:39.264Z,2.40
2022-09-21T07:46:09.228Z,2.70
2022-09-21T07:48:37.618Z,2.83
2022-09-21T07:51:06.787Z,2.60
2022-09-21T07:53:35.159Z,2.70
2022-09-21T07:56:04.389Z,2.27
2022-09-21T07:58:50.256Z,2.90
2022-09-21T08:01:19.707Z,2.80
2022-09-21T08:03:50.395Z,3.10
2022-09-21T08:06:19.057Z,2.93
2022-09-21T08:08:47.958Z,3.30
2022-09-21T08:11:16.097Z,2.70
2022-09-21T08:13:44.129Z,2.83
2022-09-21T08:16:12.251Z,3.30
2022-09-21T08:18:42.446Z,2.80
2022-09-21T08:21:12.225Z,2.50
2022-09-21T08:23:42.787Z,2.60
2022-09-21T08:26:16.350Z,2.20
2022-09-21T08:28:44.423Z,2.63
2022-09-21T08:31:12.451Z,2.40
2022-09-21T08:33:41.986Z,2.90
2022-09-21T08:36:10.338Z,2.03
2022-09-21T08:38:39.355Z,2.30
2022-09-21T08:41:16.321Z,2.80
2022-09-21T08:43:45.555Z,2.50
2022-09-21T08:46:16.818Z,2.60
2022-09-21T08:48:49.469Z,2.90
2022-09-21T08:51:22.776Z,3.20
2022-09-21T08:53:52.581Z,3.20
2022-09-21T08:56:20.757Z,2.70
2022-09-21T08:58:48.865Z,3.30
2022-09-21T09:01:34.906Z,3.30
2022-09-21T09:04:22.184Z,3.30
2022-09-21T09:06:53.716Z,3.17
2022-09-21T09:09:31.636Z,3.40
2022-09-21T09:12:14.826Z,3.50
2022-09-21T09:14:59.559Z,3.37
2022-09-21T09:17:36.217Z,3.10
2022-09-21T09:20:09.340Z,2.63
2022-09-21T09:22:41.416Z,3.17
2022-09-21T09:25:18.489Z,2.97
2022-09-21T09:27:46.593Z,3.40
2022-09-21T09:30:18.603Z,3.33
2022-09-21T09:32:52.385Z,3.37
2022-09-21T09:35:27.297Z,3.40
2022-09-21T09:37:58.927Z,3.23
2022-09-21T09:40:40.683Z,2.87
2022-09-21T09:43:09.981Z,2.90
2022-09-21T09:45:51.847Z,2.43
2022-09-21T09:48:32.798Z,2.50
2022-09-21T09:51:02.217Z,2.67
2022-09-21T09:53:30.274Z,2.20
2022-09-21T09:55:58.938Z,2.20
2022-09-21T09:58:39.374Z,2.30
2022-09-21T10:01:07.470Z,2.40
2022-09-21T10:03:36.089Z,2.40
2022-09-21T10:06:05.849Z,2.03
2022-09-21T10:08:47.328Z,2.20
2022-09-21T10:11:16.550Z,1.60
2022-09-21T10:13:46.260Z,1.90
2022-09-21T10:16:15.970Z,1.73
2022-09-21T10:18:48.378Z,1.70
2022-09-21T10:21:21.338Z,1.80
2022-09-21T10:23:50.593Z,1.63
2022-09-21T10:26:18.690Z,1.80
2022-09-21T10:28:58.047Z,1.53
2022-09-21T10:31:27.100Z,1.70
2022-09-21T10:34:06.227Z,1.47
2022-09-21T10:36:37.152Z,1.73
2022-09-21T10:39:20.557Z,1.80
2022-09-21T10:41:54.203Z,1.60
2022-09-21T10:44:24.478Z,1.60
2022-09-21T10:46:52.793Z,1.70
2022-09-21T10:49:24.336Z,1.57
2022-09-21T10:51:55.906Z,1.30
2022-09-21T10:54:26.966Z,1.37
2022-09-21T10:56:57.974Z,1.60
2022-09-21T10:59:28.513Z,1.30
2022-09-21T11:01:57.923Z,1.50
2022-09-21T11:04:38.355Z,1.40
2022-09-21T11:07:14.366Z,1.70
2022-09-21T11:09:46.430Z,1.40
2022-09-21T11:12:36.368Z,1.60
2022-09-21T11:15:15.178Z,1.70
2022-09-21T11:17:46.827Z,1.50
2022-09-21T11:20:26.391Z,1.67
2022-09-21T11:23:04.149Z,1.33
2022-09-21T11:25:40.035Z,1.50
2022-09-21T11:28:14.603Z,1.40
2022-09-21T11:31:11.704Z,1.40
2022-09-21T11:33:55.698Z,1.30
2022-09-21T11:36:29.496Z,1.33
2022-09-21T11:39:03.932Z,1.20
2022-09-21T11:41:46.553Z,1.10
2022-09-21T11:44:24.054Z,0.90
2022-09-21T11:47:00.126Z,1.00
2022-09-21T11:50:19.588Z,1.03
2022-09-21T11:52:55.918Z,0.90
2022-09-21T11:55:38.375Z,0.80
2022-09-21T11:58:10.558Z,0.80
2022-09-21T12:00:46.001Z,1.07
2022-09-21T12:03:42.051Z,0.93
2022-09-21T12:06:27.968Z,1.03
2022-09-21T12:09:11.784Z,0.87
2022-09-21T12:11:43.828Z,0.90
2022-09-21T12:14:22.409Z,0.77
2022-09-21T12:16:56.364Z,1.03
2022-09-21T12:19:33.018Z,0.90
2022-09-21T12:22:04.896Z,1.00
2022-09-21T12:24:35.931Z,0.87
2022-09-21T12:27:09.475Z,0.77
2022-09-21T12:29:41.161Z,0.70
2022-09-21T12:32:20.751Z,0.90
2022-09-21T12:34:52.550Z,0.60
2022-09-21T12:37:24.647Z,0.80
2022-09-21T12:39:56.611Z,0.90
2022-09-21T12:42:34.748Z,0.80
2022-09-21T12:45:07.308Z,0.97
2022-09-21T12:47:47.820Z,0.67
2022-09-21T12:50:21.528Z,0.70
2022-09-21T12:52:49.913Z,0.90
2022-09-21T12:55:38.750Z,0.87
2022-09-21T12:58:15.828Z,0.70
2022-09-21T13:00:56.957Z,0.80
2022-09-21T13:03:30.580Z,0.80
2022-09-21T13:06:22.042Z,0.77
2022-09-21T13:11:23.216Z,0.83
2022-09-21T13:13:54.886Z,0.77
2022-09-21T13:16:27.470Z,0.87
2022-09-21T13:18:56.905Z,0.70
2022-09-21T13:21:27.888Z,0.80
2022-09-21T13:24:00.289Z,1.00
2022-09-21T13:26:37.241Z,0.93
2022-09-21T13:29:31.385Z,0.80
2022-09-21T13:32:00.705Z,0.80
2022-09-21T13:34:36.402Z,0.90
2022-09-21T13:37:30.424Z,0.80
2022-09-21T13:40:45.843Z,0.93
2022-09-21T13:43:25.498Z,1.10
2022-09-21T13:45:59.528Z,0.70
2022-09-21T13:48:29.329Z,0.90
2022-09-21T13:51:02.917Z,0.70
2022-09-21T13:53:35.759Z,0.90
2022-09-21T13:56:10.208Z,1.00
2022-09-21T13:58:43.745Z,0.63
2022-09-21T14:01:42.389Z,0.63
2022-09-21T14:04:21.067Z,0.87
2022-09-21T14:06:50.186Z,0.90
2022-09-21T14:09:25.710Z,0.87
2022-09-21T14:11:58.965Z,0.73
2022-09-21T14:14:29.617Z,0.70
2022-09-21T14:16:59.893Z,0.80
2022-09-21T14:20:07.657Z,0.80
2022-09-21T14:22:38.792Z,0.80
2022-09-21T14:25:50.998Z,0.77
2022-09-21T14:28:22.568Z,0.67
2022-09-21T14:30:55.505Z,0.83
2022-09-21T14:33:33.680Z,0.93
2022-09-21T14:36:03.556Z,0.80
2022-09-21T14:38:42.861Z,1.00
2022-09-21T14:41:16.433Z,0.83
2022-09-21T14:43:45.309Z,1.00
2022-09-21T14:46:35.626Z,0.70
2022-09-21T14:49:18.692Z,0.83
2022-09-21T14:54:46.428Z,0.93
2022-09-21T14:57:37.109Z,1.17
2022-09-21T15:00:23.296Z,0.83
2022-09-21T15:03:07.987Z,0.80
2022-09-21T15:05:38.821Z,0.80
2022-09-21T15:08:42.274Z,0.70
2022-09-21T15:11:13.706Z,0.73
2022-09-21T15:14:14.646Z,0.80
2022-09-21T15:16:45.680Z,0.80
2022-09-21T15:19:21.768Z,0.90
2022-09-21T15:21:52.524Z,0.90
2022-09-21T15:24:34.004Z,0.87
2022-09-21T15:27:09.137Z,1.10
2022-09-21T15:29:37.346Z,0.93
2022-09-21T15:32:06.118Z,0.80
2022-09-21T15:34:34.325Z,0.90
2022-09-21T15:37:16.479Z,0.80
2022-09-21T15:39:45.049Z,0.90
2022-09-21T15:42:19.550Z,0.83
2022-09-21T15:44:50.667Z,1.10
2022-09-21T15:47:21.339Z,1.00
2022-09-21T15:49:50.849Z,0.80
2022-09-21T15:52:29.064Z,1.07
2022-09-21T15:54:59.307Z,0.80
2022-09-21T15:57:38.919Z,0.90
2022-09-21T16:00:20.359Z,1.00
2022-09-21T16:03:04.456Z,0.90
2022-09-21T16:05:45.002Z,0.80
2022-09-21T16:08:23.481Z,1.00
2022-09-21T16:10:51.780Z,1.00
2022-09-21T16:13:38.378Z,1.00
2022-09-21T16:16:07.891Z,0.80
2022-09-21T16:18:44.515Z,1.20
2022-09-21T16:21:24.330Z,0.97
2022-09-21T16:23:56.012Z,1.30
2022-09-21T16:26:28.196Z,0.97
2022-09-21T16:29:19.275Z,1.03
2022-09-21T16:31:50.397Z,1.00
2022-09-21T16:34:32.965Z,1.10
2022-09-21T16:37:02.689Z,1.03
2022-09-21T16:39:32.123Z,0.97
2022-09-21T16:42:03.642Z,1.30
2022-09-21T16:44:34.333Z,1.83
2022-09-21T16:47:03.697Z,3.57
2022-09-21T16:49:35.610Z,2.93
2022-09-21T16:52:04.083Z,2.30
2022-09-21T16:54:34.431Z,1.60
2022-09-21T16:57:03.497Z,1.60
2022-09-21T16:59:33.118Z,2.10
2022-09-21T17:02:05.119Z,2.50
2022-09-21T17:04:34.457Z,2.33
2022-09-21T17:07:03.282Z,2.87
2022-09-21T17:09:35.300Z,1.90
2022-09-21T17:12:04.213Z,1.53
2022-09-21T17:14:35.197Z,1.10
2022-09-21T17:17:06.002Z,1.30
2022-09-21T17:19:34.771Z,1.00
2022-09-21T17:22:04.144Z,1.20
2022-09-21T17:24:49.842Z,1.10
2022-09-21T17:27:19.975Z,1.30
2022-09-21T17:29:49.210Z,1.63
2022-09-21T17:32:20.141Z,1.30
2022-09-21T17:34:50.222Z,1.60
2022-09-21T17:37:18.284Z,2.63
2022-09-21T17:39:48.423Z,2.60
2022-09-21T17:42:18.965Z,4.93
2022-09-21T17:45:01.615Z,3.10
2022-09-21T17:47:33.172Z,11.63
2022-09-21T17:50:19.493Z,3.97
2022-09-21T17:53:05.969Z,2.00
2022-09-21T17:55:36.225Z,1.37
2022-09-21T17:58:17.704Z,1.30
2022-09-21T18:00:51.164Z,1.30
2022-09-21T18:03:22.748Z,1.10
2022-09-21T18:05:52.690Z,1.10
2022-09-21T18:08:21.543Z,1.27
2022-09-21T18:10:58.880Z,1.20
2022-09-21T18:13:33.650Z,1.20
2022-09-21T18:16:15.734Z,1.30
2022-09-21T18:18:46.724Z,1.30
2022-09-21T18:21:19.182Z,1.20
2022-09-21T18:24:14.761Z,1.23
2022-09-21T18:26:45.010Z,1.33
2022-09-21T18:29:41.816Z,1.10
2022-09-21T18:32:47.019Z,1.10
2022-09-21T18:35:44.910Z,1.10
2022-09-21T18:38:36.501Z,1.30
2022-09-21T18:41:34.221Z,1.13
2022-09-21T18:44:28.988Z,1.17
2022-09-21T18:47:21.123Z,1.10
2022-09-21T18:50:19.106Z,1.20
2022-09-21T18:53:13.486Z,0.97
2022-09-21T18:56:02.721Z,1.13
2022-09-21T18:58:51.795Z,1.17
2022-09-21T19:01:42.561Z,1.50
2022-09-21T19:04:31.678Z,1.20
2022-09-21T19:07:27.835Z,1.40
2022-09-21T19:10:19.696Z,1.40
2022-09-21T19:13:27.673Z,1.27
2022-09-21T19:16:27.689Z,1.20
2022-09-21T19:19:26.913Z,1.30
2022-09-21T19:22:17.863Z,1.00
2022-09-21T19:25:09.926Z,1.37
2022-09-21T19:28:01.263Z,1.20
2022-09-21T19:30:52.012Z,1.33
2022-09-21T19:33:56.192Z,1.20
2022-09-21T19:36:47.092Z,1.30
2022-09-21T19:39:36.693Z,1.40
2022-09-21T19:42:30.320Z,1.30
2022-09-21T19:45:23.621Z,1.40
2022-09-21T19:48:14.642Z,1.40
2022-09-21T19:51:03.073Z,1.40
2022-09-21T19:54:13.439Z,1.43
2022-09-21T19:57:20.296Z,1.60
2022-09-21T20:00:12.508Z,1.60
2022-09-21T20:03:04.765Z,1.70
2022-09-21T20:05:57.157Z,1.67
2022-09-21T20:08:52.681Z,2.10
2022-09-21T20:11:45.954Z,2.00
2022-09-21T20:14:37.267Z,2.10
2022-09-21T20:17:32.326Z,1.97
2022-09-21T20:20:23.944Z,1.97
2022-09-21T20:23:12.825Z,1.87
2022-09-21T20:26:06.849Z,1.90
2022-09-21T20:28:56.267Z,1.60
2022-09-21T20:31:44.699Z,1.83
2022-09-21T20:34:33.096Z,2.10
2022-09-21T20:37:23.616Z,1.90
2022-09-21T20:40:13.185Z,1.60
2022-09-21T20:43:03.049Z,1.90
2022-09-21T20:45:51.617Z,1.60
2022-09-21T20:48:40.363Z,1.73
2022-09-21T20:51:28.752Z,1.40
2022-09-21T20:54:17.291Z,1.40
2022-09-21T20:57:05.784Z,1.30
2022-09-21T20:59:55.559Z,1.20
2022-09-21T21:02:44.063Z,1.37
2022-09-21T21:05:32.724Z,1.40
2022-09-21T21:08:21.109Z,1.50
2022-09-21T21:11:10.705Z,1.40
2022-09-21T21:13:59.334Z,1.40
2022-09-21T21:16:49.318Z,1.30
2022-09-21T21:19:37.755Z,1.27
2022-09-21T21:22:26.259Z,1.37
2022-09-21T21:25:14.787Z,1.30
2022-09-21T21:28:03.418Z,1.20
2022-09-21T21:30:53.729Z,1.30
2022-09-21T21:33:43.532Z,1.30
2022-09-21T21:36:32.280Z,1.40
2022-09-21T21:39:20.656Z,1.20
2022-09-21T21:42:09.129Z,1.20
2022-09-21T21:44:57.476Z,1.30
2022-09-21T21:47:46.000Z,1.30
2022-09-21T21:50:35.870Z,1.27
2022-09-21T21:53:24.397Z,1.30
2022-09-21T21:56:14.793Z,1.30
2022-09-21T21:59:03.274Z,1.30
2022-09-21T22:01:53.123Z,1.30
2022-09-21T22:04:42.081Z,1.47
2022-09-21T22:07:32.022Z,1.20
2022-09-21T22:10:20.382Z,1.37
2022-09-21T22:13:08.767Z,1.30
2022-09-21T22:15:57.479Z,1.30
2022-09-21T22:18:46.256Z,1.20
2022-09-21T22:21:39.212Z,1.30
2022-09-21T22:24:29.586Z,1.50
2022-09-21T22:27:17.965Z,1.43
2022-09-21T22:30:08.341Z,1.30
2022-09-21T22:32:56.690Z,1.47
2022-09-21T22:35:45.084Z,1.20
2022-09-21T22:38:33.948Z,1.10
2022-09-21T22:41:25.011Z,1.30
2022-09-21T22:44:13.370Z,1.30
2022-09-21T22:47:01.773Z,1.20
2022-09-21T22:49:50.157Z,1.20
2022-09-21T22:52:38.495Z,1.53
2022-09-21T22:55:26.849Z,1.40
2022-09-21T22:58:16.636Z,1.10
2022-09-21T23:01:10.721Z,1.30
2022-09-21T23:04:00.575Z,1.23
2022-09-21T23:06:49.547Z,1.40
2022-09-21T23:09:37.930Z,1.33
2022-09-21T23:12:26.362Z,1.10
2022-09-21T23:15:16.535Z,1.20
2022-09-21T23:18:04.992Z,1.30
2022-09-21T23:21:00.001Z,1.30
2022-09-21T23:23:48.699Z,1.27
2022-09-21T23:26:37.148Z,1.20
2022-09-21T23:29:25.496Z,1.30
2022-09-21T23:32:15.247Z,1.33
2022-09-21T23:35:03.618Z,1.40
2022-09-21T23:37:52.273Z,1.53
2022-09-21T23:40:40.661Z,1.30
2022-09-21T23:43:29.116Z,1.23
2022-09-21T23:46:19.324Z,1.20
2022-09-21T23:49:09.764Z,1.30
2022-09-21T23:51:58.186Z,0.90
2022-09-21T23:54:46.677Z,1.40
2022-09-21T23:57:35.207Z,1.40
